Terminal Aerodrome Forecast
Issued by NWS

Home | Current Version | Previous Version | Text Only | Print | Product List | Glossary On
Versions: 1 2 3 4 5 6 7 8 9 10 11 12 13 14 15 16 17 18 19 20 21 22 23 24 25 26 27
000
FTUS41 KBUF 042320
TAFIAG
TAF
KIAG 042320Z 0500/0524 22005KT P6SM VCSH SCT040 OVC080
     FM050500 29006KT P6SM SCT060
     FM051500 30013KT P6SM BKN050
     FM052200 29010KT P6SM SCT060=

USA.gov is the U.S. government's official web portal to all federal, state and local government web resources and services.